sensor_id;sensor_type;location;lat;lon;timestamp;P1;durP1;ratioP1;P2;durP2;ratioP2
48743;SDS011;34538;48.836;9.174;2022-09-14T00:01:07;4.43;;;2.55;;
48743;SDS011;34538;48.836;9.174;2022-09-14T00:03:38;5.82;;;2.40;;
48743;SDS011;34538;48.836;9.174;2022-09-14T00:06:07;4.00;;;2.40;;
48743;SDS011;34538;48.836;9.174;2022-09-14T00:08:40;6.90;;;2.50;;
48743;SDS011;34538;48.836;9.174;2022-09-14T00:11:07;3.40;;;2.10;;
48743;SDS011;34538;48.836;9.174;2022-09-14T00:13:39;4.80;;;2.50;;
48743;SDS011;34538;48.836;9.174;2022-09-14T00:16:08;3.10;;;1.80;;
48743;SDS011;34538;48.836;9.174;2022-09-14T00:18:37;6.10;;;2.38;;
48743;SDS011;34538;48.836;9.174;2022-09-14T00:21:04;2.67;;;1.90;;
48743;SDS011;34538;48.836;9.174;2022-09-14T00:23:33;4.38;;;2.58;;
48743;SDS011;34538;48.836;9.174;2022-09-14T00:26:07;4.45;;;2.47;;
48743;SDS011;34538;48.836;9.174;2022-09-14T00:28:36;3.53;;;2.25;;
48743;SDS011;34538;48.836;9.174;2022-09-14T00:31:06;3.92;;;2.55;;
48743;SDS011;34538;48.836;9.174;2022-09-14T00:33:32;5.15;;;2.50;;
48743;SDS011;34538;48.836;9.174;2022-09-14T00:36:03;4.00;;;2.10;;
48743;SDS011;34538;48.836;9.174;2022-09-14T00:38:37;4.05;;;2.42;;
48743;SDS011;34538;48.836;9.174;2022-09-14T00:41:04;3.83;;;2.40;;
48743;SDS011;34538;48.836;9.174;2022-09-14T00:43:31;3.70;;;2.22;;
48743;SDS011;34538;48.836;9.174;2022-09-14T00:45:59;5.03;;;2.72;;
48743;SDS011;34538;48.836;9.174;2022-09-14T00:48:26;4.43;;;2.17;;
48743;SDS011;34538;48.836;9.174;2022-09-14T00:50:53;7.10;;;2.28;;
48743;SDS011;34538;48.836;9.174;2022-09-14T00:53:20;4.43;;;2.05;;
48743;SDS011;34538;48.836;9.174;2022-09-14T00:55:46;5.10;;;2.45;;
48743;SDS011;34538;48.836;9.174;2022-09-14T00:58:11;6.55;;;2.08;;
48743;SDS011;34538;48.836;9.174;2022-09-14T01:00:37;4.05;;;2.30;;
48743;SDS011;34538;48.836;9.174;2022-09-14T01:03:03;3.40;;;2.08;;
48743;SDS011;34538;48.836;9.174;2022-09-14T01:14:10;4.22;;;1.90;;
48743;SDS011;34538;48.836;9.174;2022-09-14T01:16:46;4.57;;;2.17;;
48743;SDS011;34538;48.836;9.174;2022-09-14T01:19:27;3.47;;;2.35;;
48743;SDS011;34538;48.836;9.174;2022-09-14T01:21:54;5.40;;;2.38;;
48743;SDS011;34538;48.836;9.174;2022-09-14T01:24:52;5.22;;;2.90;;
48743;SDS011;34538;48.836;9.174;2022-09-14T01:27:31;5.07;;;2.80;;
48743;SDS011;34538;48.836;9.174;2022-09-14T01:30:23;4.53;;;2.58;;
48743;SDS011;34538;48.836;9.174;2022-09-14T01:33:03;4.50;;;3.00;;
48743;SDS011;34538;48.836;9.174;2022-09-14T01:35:45;4.30;;;2.60;;
48743;SDS011;34538;48.836;9.174;2022-09-14T01:38:30;8.48;;;3.05;;
48743;SDS011;34538;48.836;9.174;2022-09-14T01:41:12;9.15;;;3.35;;
48743;SDS011;34538;48.836;9.174;2022-09-14T01:43:42;8.88;;;3.40;;
48743;SDS011;34538;48.836;9.174;2022-09-14T01:46:21;9.18;;;3.00;;
48743;SDS011;34538;48.836;9.174;2022-09-14T01:49:02;5.32;;;2.80;;
48743;SDS011;34538;48.836;9.174;2022-09-14T01:51:35;7.15;;;2.70;;
48743;SDS011;34538;48.836;9.174;2022-09-14T01:54:13;3.65;;;2.42;;
48743;SDS011;34538;48.836;9.174;2022-09-14T01:57:08;8.07;;;2.70;;
48743;SDS011;34538;48.836;9.174;2022-09-14T01:59:42;5.97;;;2.93;;
48743;SDS011;34538;48.836;9.174;2022-09-14T02:02:18;7.68;;;2.80;;
48743;SDS011;34538;48.836;9.174;2022-09-14T02:05:00;5.63;;;2.95;;
48743;SDS011;34538;48.836;9.174;2022-09-14T02:07:37;6.05;;;3.13;;
48743;SDS011;34538;48.836;9.174;2022-09-14T02:10:04;7.88;;;3.20;;
48743;SDS011;34538;48.836;9.174;2022-09-14T02:12:33;6.63;;;3.80;;
48743;SDS011;34538;48.836;9.174;2022-09-14T02:15:00;9.85;;;3.63;;
48743;SDS011;34538;48.836;9.174;2022-09-14T02:17:26;7.13;;;3.33;;
48743;SDS011;34538;48.836;9.174;2022-09-14T02:19:57;6.38;;;3.60;;
48743;SDS011;34538;48.836;9.174;2022-09-14T02:24:51;4.20;;;2.85;;
48743;SDS011;34538;48.836;9.174;2022-09-14T02:27:17;8.05;;;3.88;;
48743;SDS011;34538;48.836;9.174;2022-09-14T02:29:43;5.68;;;3.20;;
48743;SDS011;34538;48.836;9.174;2022-09-14T02:37:38;4.97;;;3.50;;
48743;SDS011;34538;48.836;9.174;2022-09-14T02:43:30;6.50;;;3.40;;
48743;SDS011;34538;48.836;9.174;2022-09-14T02:46:05;9.70;;;3.65;;
48743;SDS011;34538;48.836;9.174;2022-09-14T02:48:46;6.47;;;3.55;;
48743;SDS011;34538;48.836;9.174;2022-09-14T02:56:40;6.90;;;4.03;;
48743;SDS011;34538;48.836;9.174;2022-09-14T02:59:06;9.98;;;4.85;;
48743;SDS011;34538;48.836;9.174;2022-09-14T03:01:32;7.50;;;4.45;;
48743;SDS011;34538;48.836;9.174;2022-09-14T03:03:58;8.50;;;4.78;;
48743;SDS011;34538;48.836;9.174;2022-09-14T03:06:24;7.95;;;4.50;;
48743;SDS011;34538;48.836;9.174;2022-09-14T03:08:50;7.25;;;4.15;;
48743;SDS011;34538;48.836;9.174;2022-09-14T03:11:15;9.60;;;4.10;;
48743;SDS011;34538;48.836;9.174;2022-09-14T03:13:41;6.80;;;4.18;;
48743;SDS011;34538;48.836;9.174;2022-09-14T03:16:07;8.77;;;4.35;;
48743;SDS011;34538;48.836;9.174;2022-09-14T03:18:38;9.35;;;4.07;;
48743;SDS011;34538;48.836;9.174;2022-09-14T03:21:05;9.88;;;4.32;;
48743;SDS011;34538;48.836;9.174;2022-09-14T03:23:36;7.82;;;4.38;;
48743;SDS011;34538;48.836;9.174;2022-09-14T03:26:07;7.13;;;3.83;;
48743;SDS011;34538;48.836;9.174;2022-09-14T03:28:34;7.80;;;4.50;;
48743;SDS011;34538;48.836;9.174;2022-09-14T03:31:00;6.93;;;4.43;;
48743;SDS011;34538;48.836;9.174;2022-09-14T03:33:26;9.27;;;3.85;;
48743;SDS011;34538;48.836;9.174;2022-09-14T03:35:52;10.75;;;4.55;;
48743;SDS011;34538;48.836;9.174;2022-09-14T03:38:18;7.50;;;4.85;;
48743;SDS011;34538;48.836;9.174;2022-09-14T03:40:43;7.03;;;4.20;;
48743;SDS011;34538;48.836;9.174;2022-09-14T03:43:09;8.57;;;4.43;;
48743;SDS011;34538;48.836;9.174;2022-09-14T03:45:36;8.07;;;4.22;;
48743;SDS011;34538;48.836;9.174;2022-09-14T03:48:02;9.43;;;5.47;;
48743;SDS011;34538;48.836;9.174;2022-09-14T03:50:29;9.68;;;4.32;;
48743;SDS011;34538;48.836;9.174;2022-09-14T03:52:55;7.22;;;4.50;;
48743;SDS011;34538;48.836;9.174;2022-09-14T03:55:21;8.02;;;4.50;;
48743;SDS011;34538;48.836;9.174;2022-09-14T03:57:47;7.38;;;4.35;;
48743;SDS011;34538;48.836;9.174;2022-09-14T04:00:12;7.30;;;4.20;;
48743;SDS011;34538;48.836;9.174;2022-09-14T04:02:39;6.05;;;4.15;;
48743;SDS011;34538;48.836;9.174;2022-09-14T04:05:05;9.02;;;3.90;;
48743;SDS011;34538;48.836;9.174;2022-09-14T04:07:31;7.28;;;4.40;;
48743;SDS011;34538;48.836;9.174;2022-09-14T04:09:57;6.68;;;4.13;;
48743;SDS011;34538;48.836;9.174;2022-09-14T04:12:22;6.55;;;4.15;;
48743;SDS011;34538;48.836;9.174;2022-09-14T04:14:48;7.72;;;4.80;;
48743;SDS011;34538;48.836;9.174;2022-09-14T04:17:14;6.53;;;4.60;;
48743;SDS011;34538;48.836;9.174;2022-09-14T04:19:41;6.63;;;4.50;;
48743;SDS011;34538;48.836;9.174;2022-09-14T04:22:07;8.48;;;4.50;;
48743;SDS011;34538;48.836;9.174;2022-09-14T04:24:33;10.27;;;5.15;;
48743;SDS011;34538;48.836;9.174;2022-09-14T04:26:58;10.13;;;6.07;;
48743;SDS011;34538;48.836;9.174;2022-09-14T04:29:24;7.55;;;4.70;;
48743;SDS011;34538;48.836;9.174;2022-09-14T04:31:50;10.68;;;5.30;;
48743;SDS011;34538;48.836;9.174;2022-09-14T04:34:15;9.00;;;5.07;;
48743;SDS011;34538;48.836;9.174;2022-09-14T04:36:41;10.50;;;5.60;;
48743;SDS011;34538;48.836;9.174;2022-09-14T04:39:09;9.63;;;6.15;;
48743;SDS011;34538;48.836;9.174;2022-09-14T04:41:37;10.25;;;6.60;;
48743;SDS011;34538;48.836;9.174;2022-09-14T04:44:03;10.75;;;5.95;;
48743;SDS011;34538;48.836;9.174;2022-09-14T04:46:29;10.73;;;6.38;;
48743;SDS011;34538;48.836;9.174;2022-09-14T04:48:56;10.73;;;6.07;;
48743;SDS011;34538;48.836;9.174;2022-09-14T04:51:23;9.77;;;6.05;;
48743;SDS011;34538;48.836;9.174;2022-09-14T04:53:52;9.68;;;5.53;;
48743;SDS011;34538;48.836;9.174;2022-09-14T04:56:20;9.48;;;5.70;;
48743;SDS011;34538;48.836;9.174;2022-09-14T04:58:48;10.82;;;5.78;;
48743;SDS011;34538;48.836;9.174;2022-09-14T05:01:19;10.18;;;5.78;;
48743;SDS011;34538;48.836;9.174;2022-09-14T05:03:47;10.32;;;5.80;;
48743;SDS011;34538;48.836;9.174;2022-09-14T05:06:14;10.32;;;5.68;;
48743;SDS011;34538;48.836;9.174;2022-09-14T05:08:41;8.98;;;5.13;;
48743;SDS011;34538;48.836;9.174;2022-09-14T05:11:08;8.35;;;5.35;;
48743;SDS011;34538;48.836;9.174;2022-09-14T05:13:36;8.95;;;5.88;;
48743;SDS011;34538;48.836;9.174;2022-09-14T05:16:08;8.93;;;4.68;;
48743;SDS011;34538;48.836;9.174;2022-09-14T05:18:39;10.27;;;6.20;;
48743;SDS011;34538;48.836;9.174;2022-09-14T05:21:06;9.50;;;6.07;;
48743;SDS011;34538;48.836;9.174;2022-09-14T05:23:33;10.73;;;6.63;;
48743;SDS011;34538;48.836;9.174;2022-09-14T05:25:59;9.80;;;6.38;;
48743;SDS011;34538;48.836;9.174;2022-09-14T05:28:25;9.68;;;6.50;;
48743;SDS011;34538;48.836;9.174;2022-09-14T05:30:52;8.65;;;6.78;;
48743;SDS011;34538;48.836;9.174;2022-09-14T05:33:18;10.23;;;6.60;;
48743;SDS011;34538;48.836;9.174;2022-09-14T05:35:45;12.38;;;7.30;;
48743;SDS011;34538;48.836;9.174;2022-09-14T05:38:11;11.82;;;7.85;;
48743;SDS011;34538;48.836;9.174;2022-09-14T05:40:36;9.93;;;7.50;;
48743;SDS011;34538;48.836;9.174;2022-09-14T05:43:02;10.90;;;8.05;;
48743;SDS011;34538;48.836;9.174;2022-09-14T05:45:28;9.13;;;7.30;;
48743;SDS011;34538;48.836;9.174;2022-09-14T05:47:53;12.27;;;7.38;;
48743;SDS011;34538;48.836;9.174;2022-09-14T05:50:19;12.95;;;7.53;;
48743;SDS011;34538;48.836;9.174;2022-09-14T05:52:44;11.10;;;7.22;;
48743;SDS011;34538;48.836;9.174;2022-09-14T05:55:10;10.77;;;7.88;;
48743;SDS011;34538;48.836;9.174;2022-09-14T05:57:36;9.80;;;7.80;;
48743;SDS011;34538;48.836;9.174;2022-09-14T06:00:02;13.10;;;8.18;;
48743;SDS011;34538;48.836;9.174;2022-09-14T06:02:37;9.63;;;7.38;;
48743;SDS011;34538;48.836;9.174;2022-09-14T06:05:02;11.10;;;7.53;;
48743;SDS011;34538;48.836;9.174;2022-09-14T06:07:28;11.02;;;7.35;;
48743;SDS011;34538;48.836;9.174;2022-09-14T06:09:54;11.15;;;7.53;;
48743;SDS011;34538;48.836;9.174;2022-09-14T06:12:20;9.90;;;6.85;;
48743;SDS011;34538;48.836;9.174;2022-09-14T06:14:46;11.10;;;7.80;;
48743;SDS011;34538;48.836;9.174;2022-09-14T06:17:11;10.65;;;7.80;;
48743;SDS011;34538;48.836;9.174;2022-09-14T06:19:37;12.68;;;8.30;;
48743;SDS011;34538;48.836;9.174;2022-09-14T06:22:02;12.85;;;7.57;;
48743;SDS011;34538;48.836;9.174;2022-09-14T06:24:28;12.73;;;8.35;;
48743;SDS011;34538;48.836;9.174;2022-09-14T06:26:54;13.05;;;8.50;;
48743;SDS011;34538;48.836;9.174;2022-09-14T06:29:19;11.70;;;8.40;;
48743;SDS011;34538;48.836;9.174;2022-09-14T06:31:45;12.15;;;7.38;;
48743;SDS011;34538;48.836;9.174;2022-09-14T06:34:10;9.82;;;6.63;;
48743;SDS011;34538;48.836;9.174;2022-09-14T06:36:36;11.85;;;7.55;;
48743;SDS011;34538;48.836;9.174;2022-09-14T06:39:01;11.95;;;7.70;;
48743;SDS011;34538;48.836;9.174;2022-09-14T06:41:27;9.55;;;7.60;;
48743;SDS011;34538;48.836;9.174;2022-09-14T06:43:55;12.30;;;7.10;;
48743;SDS011;34538;48.836;9.174;2022-09-14T06:46:23;11.85;;;6.78;;
48743;SDS011;34538;48.836;9.174;2022-09-14T06:48:53;12.23;;;6.80;;
48743;SDS011;34538;48.836;9.174;2022-09-14T06:51:24;9.97;;;7.10;;
48743;SDS011;34538;48.836;9.174;2022-09-14T06:53:54;8.93;;;6.65;;
48743;SDS011;34538;48.836;9.174;2022-09-14T06:56:24;10.48;;;7.75;;
48743;SDS011;34538;48.836;9.174;2022-09-14T06:58:50;11.07;;;6.75;;
48743;SDS011;34538;48.836;9.174;2022-09-14T07:01:17;9.88;;;6.72;;
48743;SDS011;34538;48.836;9.174;2022-09-14T07:03:46;12.05;;;6.38;;
48743;SDS011;34538;48.836;9.174;2022-09-14T07:06:14;9.48;;;6.15;;
48743;SDS011;34538;48.836;9.174;2022-09-14T07:08:41;8.50;;;5.15;;
48743;SDS011;34538;48.836;9.174;2022-09-14T07:11:07;7.82;;;5.10;;
48743;SDS011;34538;48.836;9.174;2022-09-14T07:13:34;8.80;;;4.63;;
48743;SDS011;34538;48.836;9.174;2022-09-14T07:16:00;6.07;;;4.18;;
48743;SDS011;34538;48.836;9.174;2022-09-14T07:18:27;7.25;;;4.32;;
48743;SDS011;34538;48.836;9.174;2022-09-14T07:21:13;4.57;;;3.55;;
48743;SDS011;34538;48.836;9.174;2022-09-14T07:23:41;5.90;;;4.15;;
48743;SDS011;34538;48.836;9.174;2022-09-14T07:26:13;7.55;;;4.43;;
48743;SDS011;34538;48.836;9.174;2022-09-14T07:28:39;5.68;;;3.58;;
48743;SDS011;34538;48.836;9.174;2022-09-14T07:31:12;6.00;;;3.70;;
48743;SDS011;34538;48.836;9.174;2022-09-14T07:33:55;10.07;;;4.25;;
48743;SDS011;34538;48.836;9.174;2022-09-14T07:36:23;4.63;;;3.10;;
48743;SDS011;34538;48.836;9.174;2022-09-14T07:38:50;7.40;;;3.22;;
48743;SDS011;34538;48.836;9.174;2022-09-14T07:41:16;5.65;;;3.53;;
48743;SDS011;34538;48.836;9.174;2022-09-14T07:43:42;5.22;;;3.60;;
48743;SDS011;34538;48.836;9.174;2022-09-14T07:46:08;4.13;;;3.30;;
48743;SDS011;34538;48.836;9.174;2022-09-14T07:48:34;6.43;;;3.55;;
48743;SDS011;34538;48.836;9.174;2022-09-14T07:51:06;5.45;;;3.35;;
48743;SDS011;34538;48.836;9.174;2022-09-14T07:53:34;5.07;;;3.00;;
48743;SDS011;34538;48.836;9.174;2022-09-14T07:56:06;5.65;;;3.00;;
48743;SDS011;34538;48.836;9.174;2022-09-14T07:58:33;3.85;;;2.83;;
48743;SDS011;34538;48.836;9.174;2022-09-14T08:00:59;3.63;;;2.58;;
48743;SDS011;34538;48.836;9.174;2022-09-14T08:03:29;4.88;;;2.55;;
48743;SDS011;34538;48.836;9.174;2022-09-14T08:08:28;3.60;;;2.40;;
48743;SDS011;34538;48.836;9.174;2022-09-14T08:11:01;6.15;;;2.45;;
48743;SDS011;34538;48.836;9.174;2022-09-14T08:13:31;4.47;;;2.58;;
48743;SDS011;34538;48.836;9.174;2022-09-14T08:15:58;4.88;;;2.50;;
48743;SDS011;34538;48.836;9.174;2022-09-14T08:18:25;5.28;;;2.50;;
48743;SDS011;34538;48.836;9.174;2022-09-14T08:20:51;3.13;;;2.15;;
48743;SDS011;34538;48.836;9.174;2022-09-14T08:23:17;2.85;;;2.50;;
48743;SDS011;34538;48.836;9.174;2022-09-14T08:25:42;4.93;;;2.60;;
48743;SDS011;34538;48.836;9.174;2022-09-14T08:28:08;3.67;;;2.28;;
48743;SDS011;34538;48.836;9.174;2022-09-14T08:30:34;3.17;;;2.40;;
48743;SDS011;34538;48.836;9.174;2022-09-14T08:32:59;6.45;;;2.83;;
48743;SDS011;34538;48.836;9.174;2022-09-14T08:35:25;4.72;;;2.30;;
48743;SDS011;34538;48.836;9.174;2022-09-14T08:37:50;2.97;;;1.95;;
48743;SDS011;34538;48.836;9.174;2022-09-14T08:40:16;2.63;;;1.85;;
48743;SDS011;34538;48.836;9.174;2022-09-14T08:42:42;3.78;;;2.17;;
48743;SDS011;34538;48.836;9.174;2022-09-14T08:45:09;4.43;;;2.20;;
48743;SDS011;34538;48.836;9.174;2022-09-14T08:47:39;8.18;;;2.88;;
48743;SDS011;34538;48.836;9.174;2022-09-14T08:52:41;8.20;;;2.35;;
48743;SDS011;34538;48.836;9.174;2022-09-14T08:58:05;4.90;;;3.05;;
48743;SDS011;34538;48.836;9.174;2022-09-14T09:12:13;5.18;;;2.38;;
48743;SDS011;34538;48.836;9.174;2022-09-14T09:15:00;5.20;;;2.20;;
48743;SDS011;34538;48.836;9.174;2022-09-14T09:17:49;4.43;;;2.28;;
48743;SDS011;34538;48.836;9.174;2022-09-14T09:20:21;4.45;;;2.03;;
48743;SDS011;34538;48.836;9.174;2022-09-14T09:22:56;4.43;;;2.38;;
48743;SDS011;34538;48.836;9.174;2022-09-14T09:25:37;3.63;;;1.90;;
48743;SDS011;34538;48.836;9.174;2022-09-14T09:28:14;2.72;;;2.00;;
48743;SDS011;34538;48.836;9.174;2022-09-14T09:30:40;2.35;;;1.92;;
48743;SDS011;34538;48.836;9.174;2022-09-14T09:33:14;3.42;;;1.95;;
48743;SDS011;34538;48.836;9.174;2022-09-14T09:36:03;3.80;;;1.70;;
48743;SDS011;34538;48.836;9.174;2022-09-14T09:38:33;2.90;;;1.90;;
48743;SDS011;34538;48.836;9.174;2022-09-14T09:41:00;4.07;;;2.28;;
48743;SDS011;34538;48.836;9.174;2022-09-14T09:43:55;2.53;;;1.40;;
48743;SDS011;34538;48.836;9.174;2022-09-14T09:46:24;2.92;;;1.88;;
48743;SDS011;34538;48.836;9.174;2022-09-14T09:48:58;3.08;;;1.85;;
48743;SDS011;34538;48.836;9.174;2022-09-14T09:51:28;4.43;;;1.90;;
48743;SDS011;34538;48.836;9.174;2022-09-14T09:53:56;5.07;;;2.05;;
48743;SDS011;34538;48.836;9.174;2022-09-14T09:56:31;3.85;;;1.70;;
48743;SDS011;34538;48.836;9.174;2022-09-14T10:01:26;3.55;;;1.90;;
48743;SDS011;34538;48.836;9.174;2022-09-14T10:04:02;5.10;;;2.00;;
48743;SDS011;34538;48.836;9.174;2022-09-14T10:06:30;5.10;;;1.80;;
48743;SDS011;34538;48.836;9.174;2022-09-14T10:08:56;6.50;;;1.50;;
48743;SDS011;34538;48.836;9.174;2022-09-14T10:11:35;4.25;;;1.77;;
48743;SDS011;34538;48.836;9.174;2022-09-14T10:14:02;5.47;;;1.90;;
48743;SDS011;34538;48.836;9.174;2022-09-14T10:16:35;4.15;;;1.55;;
48743;SDS011;34538;48.836;9.174;2022-09-14T10:19:11;5.72;;;1.90;;
48743;SDS011;34538;48.836;9.174;2022-09-14T10:24:50;4.50;;;1.90;;
48743;SDS011;34538;48.836;9.174;2022-09-14T10:30:24;3.10;;;1.95;;
48743;SDS011;34538;48.836;9.174;2022-09-14T10:32:54;2.45;;;2.00;;
48743;SDS011;34538;48.836;9.174;2022-09-14T10:35:44;3.83;;;2.45;;
48743;SDS011;34538;48.836;9.174;2022-09-14T10:43:38;1.85;;;1.40;;
48743;SDS011;34538;48.836;9.174;2022-09-14T10:46:06;4.63;;;2.10;;
48743;SDS011;34538;48.836;9.174;2022-09-14T11:00:03;3.28;;;2.10;;
48743;SDS011;34538;48.836;9.174;2022-09-14T11:02:51;4.70;;;2.35;;
48743;SDS011;34538;48.836;9.174;2022-09-14T11:05:45;3.33;;;1.80;;
48743;SDS011;34538;48.836;9.174;2022-09-14T11:08:28;2.47;;;1.65;;
48743;SDS011;34538;48.836;9.174;2022-09-14T11:11:08;6.25;;;1.42;;
48743;SDS011;34538;48.836;9.174;2022-09-14T11:13:53;2.28;;;1.23;;
48743;SDS011;34538;48.836;9.174;2022-09-14T11:22:34;4.40;;;1.67;;
48743;SDS011;34538;48.836;9.174;2022-09-14T11:25:23;4.45;;;1.50;;
48743;SDS011;34538;48.836;9.174;2022-09-14T11:28:09;4.72;;;2.42;;
48743;SDS011;34538;48.836;9.174;2022-09-14T11:33:32;6.10;;;1.55;;
48743;SDS011;34538;48.836;9.174;2022-09-14T11:36:07;5.70;;;2.30;;
48743;SDS011;34538;48.836;9.174;2022-09-14T11:38:51;3.25;;;2.13;;
48743;SDS011;34538;48.836;9.174;2022-09-14T11:44:00;3.03;;;1.70;;
48743;SDS011;34538;48.836;9.174;2022-09-14T11:46:57;3.10;;;1.47;;
48743;SDS011;34538;48.836;9.174;2022-09-14T11:49:29;2.50;;;1.40;;
48743;SDS011;34538;48.836;9.174;2022-09-14T11:54:28;2.08;;;1.73;;
48743;SDS011;34538;48.836;9.174;2022-09-14T11:56:56;4.78;;;1.17;;
48743;SDS011;34538;48.836;9.174;2022-09-14T12:13:23;3.35;;;1.80;;
48743;SDS011;34538;48.836;9.174;2022-09-14T12:15:31;4.57;;;1.67;;
48743;SDS011;34538;48.836;9.174;2022-09-14T12:20:36;4.07;;;1.45;;
48743;SDS011;34538;48.836;9.174;2022-09-14T12:25:39;1.95;;;1.70;;
48743;SDS011;34538;48.836;9.174;2022-09-14T12:28:26;2.05;;;1.40;;
48743;SDS011;34538;48.836;9.174;2022-09-14T12:56:24;5.75;;;2.40;;
48743;SDS011;34538;48.836;9.174;2022-09-14T12:59:07;3.85;;;1.90;;
48743;SDS011;34538;48.836;9.174;2022-09-14T13:04:26;3.80;;;2.17;;
48743;SDS011;34538;48.836;9.174;2022-09-14T13:06:55;3.58;;;2.00;;
48743;SDS011;34538;48.836;9.174;2022-09-14T13:09:26;4.20;;;1.95;;
48743;SDS011;34538;48.836;9.174;2022-09-14T13:11:59;4.03;;;2.17;;
48743;SDS011;34538;48.836;9.174;2022-09-14T13:17:12;5.00;;;1.95;;
48743;SDS011;34538;48.836;9.174;2022-09-14T13:19:39;6.22;;;2.22;;
48743;SDS011;34538;48.836;9.174;2022-09-14T13:22:28;3.13;;;2.28;;
48743;SDS011;34538;48.836;9.174;2022-09-14T13:24:53;4.00;;;1.95;;
48743;SDS011;34538;48.836;9.174;2022-09-14T13:30:04;4.07;;;1.75;;
48743;SDS011;34538;48.836;9.174;2022-09-14T13:32:42;3.10;;;1.77;;
48743;SDS011;34538;48.836;9.174;2022-09-14T13:35:23;3.85;;;2.08;;
48743;SDS011;34538;48.836;9.174;2022-09-14T13:37:53;3.58;;;1.63;;
48743;SDS011;34538;48.836;9.174;2022-09-14T13:40:23;5.85;;;2.08;;
48743;SDS011;34538;48.836;9.174;2022-09-14T13:42:52;4.15;;;1.45;;
48743;SDS011;34538;48.836;9.174;2022-09-14T13:45:18;1.52;;;1.25;;
48743;SDS011;34538;48.836;9.174;2022-09-14T13:47:45;2.38;;;1.50;;
48743;SDS011;34538;48.836;9.174;2022-09-14T13:50:11;3.55;;;1.67;;
48743;SDS011;34538;48.836;9.174;2022-09-14T13:52:38;5.07;;;1.80;;
48743;SDS011;34538;48.836;9.174;2022-09-14T13:57:31;4.60;;;1.40;;
48743;SDS011;34538;48.836;9.174;2022-09-14T14:02:41;1.92;;;1.30;;
48743;SDS011;34538;48.836;9.174;2022-09-14T14:07:48;3.78;;;1.42;;
48743;SDS011;34538;48.836;9.174;2022-09-14T14:10:32;3.45;;;1.77;;
48743;SDS011;34538;48.836;9.174;2022-09-14T14:13:02;5.25;;;2.00;;
48743;SDS011;34538;48.836;9.174;2022-09-14T14:15:38;2.33;;;1.80;;
48743;SDS011;34538;48.836;9.174;2022-09-14T14:21:02;3.53;;;2.13;;
48743;SDS011;34538;48.836;9.174;2022-09-14T14:23:29;2.00;;;1.40;;
48743;SDS011;34538;48.836;9.174;2022-09-14T14:26:04;2.28;;;1.63;;
48743;SDS011;34538;48.836;9.174;2022-09-14T14:28:42;2.28;;;1.40;;
48743;SDS011;34538;48.836;9.174;2022-09-14T14:31:15;3.00;;;1.33;;
48743;SDS011;34538;48.836;9.174;2022-09-14T14:33:48;3.72;;;1.63;;
48743;SDS011;34538;48.836;9.174;2022-09-14T14:36:15;3.33;;;1.48;;
48743;SDS011;34538;48.836;9.174;2022-09-14T14:38:43;3.78;;;1.70;;
48743;SDS011;34538;48.836;9.174;2022-09-14T14:41:12;3.85;;;1.27;;
48743;SDS011;34538;48.836;9.174;2022-09-14T14:43:40;1.77;;;1.13;;
48743;SDS011;34538;48.836;9.174;2022-09-14T14:46:07;2.45;;;1.48;;
48743;SDS011;34538;48.836;9.174;2022-09-14T14:48:33;1.77;;;1.10;;
48743;SDS011;34538;48.836;9.174;2022-09-14T14:50:59;1.83;;;1.20;;
48743;SDS011;34538;48.836;9.174;2022-09-14T14:53:24;2.65;;;1.50;;
48743;SDS011;34538;48.836;9.174;2022-09-14T14:55:50;2.67;;;1.58;;
48743;SDS011;34538;48.836;9.174;2022-09-14T14:58:18;2.78;;;1.20;;
48743;SDS011;34538;48.836;9.174;2022-09-14T15:00:45;2.35;;;1.30;;
48743;SDS011;34538;48.836;9.174;2022-09-14T15:03:11;1.90;;;1.25;;
48743;SDS011;34538;48.836;9.174;2022-09-14T15:05:44;2.03;;;0.93;;
48743;SDS011;34538;48.836;9.174;2022-09-14T15:08:12;1.60;;;1.08;;
48743;SDS011;34538;48.836;9.174;2022-09-14T15:10:40;1.13;;;0.93;;
48743;SDS011;34538;48.836;9.174;2022-09-14T15:13:06;3.35;;;1.08;;
48743;SDS011;34538;48.836;9.174;2022-09-14T15:15:34;3.05;;;1.05;;
48743;SDS011;34538;48.836;9.174;2022-09-14T15:18:00;1.98;;;0.98;;
48743;SDS011;34538;48.836;9.174;2022-09-14T15:20:26;3.03;;;0.90;;
48743;SDS011;34538;48.836;9.174;2022-09-14T15:22:51;2.22;;;1.08;;
48743;SDS011;34538;48.836;9.174;2022-09-14T15:25:18;1.77;;;0.90;;
48743;SDS011;34538;48.836;9.174;2022-09-14T15:27:45;1.92;;;1.20;;
48743;SDS011;34538;48.836;9.174;2022-09-14T15:30:11;1.42;;;0.93;;
48743;SDS011;34538;48.836;9.174;2022-09-14T15:32:38;2.35;;;0.93;;
48743;SDS011;34538;48.836;9.174;2022-09-14T15:35:05;2.05;;;1.20;;
48743;SDS011;34538;48.836;9.174;2022-09-14T15:37:31;3.15;;;1.55;;
48743;SDS011;34538;48.836;9.174;2022-09-14T15:39:57;2.63;;;1.05;;
48743;SDS011;34538;48.836;9.174;2022-09-14T15:42:23;2.22;;;1.08;;
48743;SDS011;34538;48.836;9.174;2022-09-14T15:44:49;2.58;;;0.98;;
48743;SDS011;34538;48.836;9.174;2022-09-14T15:47:15;2.90;;;1.40;;
48743;SDS011;34538;48.836;9.174;2022-09-14T15:49:41;1.95;;;1.02;;
48743;SDS011;34538;48.836;9.174;2022-09-14T15:52:08;2.05;;;1.10;;
48743;SDS011;34538;48.836;9.174;2022-09-14T15:54:35;1.33;;;0.82;;
48743;SDS011;34538;48.836;9.174;2022-09-14T15:57:03;2.28;;;1.00;;
48743;SDS011;34538;48.836;9.174;2022-09-14T15:59:30;1.35;;;1.08;;
48743;SDS011;34538;48.836;9.174;2022-09-14T16:01:56;2.15;;;0.70;;
48743;SDS011;34538;48.836;9.174;2022-09-14T16:04:22;2.83;;;0.70;;
48743;SDS011;34538;48.836;9.174;2022-09-14T16:06:48;1.67;;;0.80;;
48743;SDS011;34538;48.836;9.174;2022-09-14T16:09:14;1.75;;;0.80;;
48743;SDS011;34538;48.836;9.174;2022-09-14T16:11:41;2.75;;;1.00;;
48743;SDS011;34538;48.836;9.174;2022-09-14T16:14:08;2.22;;;1.00;;
48743;SDS011;34538;48.836;9.174;2022-09-14T16:16:34;1.73;;;1.00;;
48743;SDS011;34538;48.836;9.174;2022-09-14T16:19:08;1.30;;;0.90;;
48743;SDS011;34538;48.836;9.174;2022-09-14T16:21:36;2.40;;;0.82;;
48743;SDS011;34538;48.836;9.174;2022-09-14T16:24:04;2.83;;;1.00;;
48743;SDS011;34538;48.836;9.174;2022-09-14T16:26:32;1.55;;;0.90;;
48743;SDS011;34538;48.836;9.174;2022-09-14T16:29:00;2.47;;;1.00;;
48743;SDS011;34538;48.836;9.174;2022-09-14T16:31:27;0.93;;;0.82;;
48743;SDS011;34538;48.836;9.174;2022-09-14T16:33:55;0.75;;;0.70;;
48743;SDS011;34538;48.836;9.174;2022-09-14T16:36:24;3.42;;;1.27;;
48743;SDS011;34538;48.836;9.174;2022-09-14T16:38:52;1.65;;;1.00;;
48743;SDS011;34538;48.836;9.174;2022-09-14T16:41:20;2.25;;;1.10;;
48743;SDS011;34538;48.836;9.174;2022-09-14T16:43:45;1.40;;;1.13;;
48743;SDS011;34538;48.836;9.174;2022-09-14T16:46:15;2.42;;;1.05;;
48743;SDS011;34538;48.836;9.174;2022-09-14T16:48:42;3.45;;;1.20;;
48743;SDS011;34538;48.836;9.174;2022-09-14T16:51:10;2.83;;;1.00;;
48743;SDS011;34538;48.836;9.174;2022-09-14T16:53:37;4.32;;;1.25;;
48743;SDS011;34538;48.836;9.174;2022-09-14T16:56:06;2.72;;;1.00;;
48743;SDS011;34538;48.836;9.174;2022-09-14T16:58:36;3.17;;;1.05;;
48743;SDS011;34538;48.836;9.174;2022-09-14T17:01:07;2.35;;;1.30;;
48743;SDS011;34538;48.836;9.174;2022-09-14T17:03:38;2.33;;;1.30;;
48743;SDS011;34538;48.836;9.174;2022-09-14T17:06:08;3.58;;;1.30;;
48743;SDS011;34538;48.836;9.174;2022-09-14T17:08:38;5.90;;;1.33;;
48743;SDS011;34538;48.836;9.174;2022-09-14T17:11:04;2.95;;;1.00;;
48743;SDS011;34538;48.836;9.174;2022-09-14T17:13:30;3.45;;;1.45;;
48743;SDS011;34538;48.836;9.174;2022-09-14T17:16:00;3.63;;;1.10;;
48743;SDS011;34538;48.836;9.174;2022-09-14T17:18:31;1.35;;;1.00;;
48743;SDS011;34538;48.836;9.174;2022-09-14T17:20:59;2.42;;;1.15;;
48743;SDS011;34538;48.836;9.174;2022-09-14T17:23:26;2.03;;;1.15;;
48743;SDS011;34538;48.836;9.174;2022-09-14T17:25:52;1.50;;;0.98;;
48743;SDS011;34538;48.836;9.174;2022-09-14T17:28:19;3.30;;;1.50;;